createdAt,value
2018-06-09T00:01:26.089Z,41.80
2018-06-09T00:03:29.930Z,40.70
2018-06-09T00:05:33.696Z,48.00
2018-06-09T00:07:37.629Z,45.60
2018-06-09T00:09:41.465Z,46.53
2018-06-09T00:11:45.349Z,38.00
2018-06-09T00:13:49.171Z,38.77
2018-06-09T00:15:53.009Z,41.10
2018-06-09T00:17:56.813Z,43.50
2018-06-09T00:20:00.649Z,46.03
2018-06-09T00:22:04.418Z,42.60
2018-06-09T00:24:08.246Z,39.53
2018-06-09T00:26:12.696Z,38.53
2018-06-09T00:28:16.670Z,40.33
2018-06-09T00:30:20.435Z,42.80
2018-06-09T00:32:24.285Z,48.83
2018-06-09T00:34:28.028Z,41.73
2018-06-09T00:36:31.889Z,39.80
2018-06-09T00:38:35.714Z,35.67
2018-06-09T00:40:39.554Z,43.10
2018-06-09T00:42:43.338Z,41.27
2018-06-09T00:44:47.213Z,40.03
2018-06-09T00:46:51.097Z,39.40
2018-06-09T00:48:54.998Z,39.73
2018-06-09T00:50:58.793Z,39.77
2018-06-09T00:53:02.784Z,49.83
2018-06-09T00:55:06.590Z,44.13
2018-06-09T00:57:10.456Z,38.67
2018-06-09T00:59:14.211Z,38.90
2018-06-09T01:01:18.263Z,35.83
2018-06-09T01:03:22.039Z,37.57
2018-06-09T01:05:25.901Z,41.80
2018-06-09T01:07:29.849Z,45.10
2018-06-09T01:09:33.673Z,40.83
2018-06-09T01:11:37.472Z,38.57
2018-06-09T01:13:41.338Z,40.20
2018-06-09T01:15:45.134Z,36.60
2018-06-09T01:17:48.983Z,36.07
2018-06-09T01:19:52.878Z,38.40
2018-06-09T01:21:56.732Z,35.83
2018-06-09T01:24:00.472Z,38.47
2018-06-09T01:26:04.317Z,46.90
2018-06-09T01:28:08.111Z,43.07
2018-06-09T01:30:12.183Z,41.97
2018-06-09T01:32:15.929Z,41.60
2018-06-09T01:34:19.790Z,35.70
2018-06-09T01:36:23.512Z,36.60
2018-06-09T01:38:27.365Z,36.33
2018-06-09T01:40:31.135Z,37.13
2018-06-09T01:42:34.993Z,37.20
2018-06-09T01:44:38.770Z,51.83
2018-06-09T01:46:42.752Z,38.67
2018-06-09T01:48:46.545Z,43.37
2018-06-09T01:50:50.445Z,39.10
2018-06-09T01:52:54.183Z,44.00
2018-06-09T01:54:58.138Z,42.80
2018-06-09T01:57:01.993Z,49.07
2018-06-09T01:59:05.858Z,35.67
2018-06-09T02:01:09.617Z,42.00
2018-06-09T02:03:13.483Z,40.70
2018-06-09T02:05:17.263Z,42.43
2018-06-09T02:07:21.123Z,36.90
2018-06-09T02:09:25.053Z,42.13
2018-06-09T02:11:28.848Z,45.47
2018-06-09T02:13:32.721Z,37.60
2018-06-09T02:15:36.587Z,44.73
2018-06-09T02:17:40.331Z,41.50
2018-06-09T02:19:44.166Z,41.83
2018-06-09T02:21:47.913Z,41.07
2018-06-09T02:23:51.758Z,45.57
2018-06-09T02:25:55.525Z,45.57
2018-06-09T02:27:59.390Z,47.50
2018-06-09T02:30:03.161Z,40.37
2018-06-09T02:32:07.875Z,38.43
2018-06-09T02:34:11.646Z,42.23
2018-06-09T02:36:15.552Z,48.53
2018-06-09T02:38:19.341Z,44.13
2018-06-09T02:40:23.199Z,42.97
2018-06-09T02:42:27.017Z,40.40
2018-06-09T02:44:30.851Z,43.07
2018-06-09T02:46:34.820Z,52.33
2018-06-09T02:48:38.702Z,51.80
2018-06-09T02:50:42.497Z,45.67
2018-06-09T02:52:46.819Z,41.40
2018-06-09T02:54:51.158Z,45.17
2018-06-09T02:56:55.107Z,45.23
2018-06-09T02:58:58.896Z,39.67
2018-06-09T03:01:02.935Z,42.63
2018-06-09T03:03:07.025Z,50.43
2018-06-09T03:05:10.949Z,46.57
2018-06-09T03:07:14.721Z,45.47
2018-06-09T03:09:18.598Z,53.37
2018-06-09T03:11:22.347Z,48.70
2018-06-09T03:13:26.191Z,42.50
2018-06-09T03:15:29.998Z,55.60
2018-06-09T03:17:33.865Z,40.57
2018-06-09T03:19:37.659Z,46.00
2018-06-09T03:21:41.520Z,44.53
2018-06-09T03:23:45.294Z,50.37
2018-06-09T03:25:49.185Z,46.17
2018-06-09T03:27:52.907Z,48.13
2018-06-09T03:29:56.743Z,42.77
2018-06-09T03:32:00.503Z,42.30
2018-06-09T03:34:04.348Z,45.30
2018-06-09T03:36:08.090Z,46.87
2018-06-09T03:38:11.953Z,42.77
2018-06-09T03:40:15.751Z,47.40
2018-06-09T03:42:19.591Z,43.83
2018-06-09T03:44:23.430Z,43.80
2018-06-09T03:46:27.284Z,44.50
2018-06-09T03:48:30.645Z,42.30
2018-06-09T03:50:34.543Z,45.63
2018-06-09T03:52:38.352Z,40.37
2018-06-09T03:54:42.258Z,39.67
2018-06-09T03:56:46.057Z,36.53
2018-06-09T03:58:49.981Z,40.23
2018-06-09T04:00:54.136Z,39.40
2018-06-09T04:02:57.964Z,39.40
2018-06-09T04:05:11.339Z,41.60
2018-06-09T04:07:15.269Z,48.90
2018-06-09T04:09:19.079Z,43.30
2018-06-09T04:11:22.930Z,37.47
2018-06-09T04:13:26.656Z,36.27
2018-06-09T04:15:30.532Z,37.47
2018-06-09T04:17:34.295Z,37.70
2018-06-09T04:19:38.225Z,38.43
2018-06-09T04:21:42.019Z,37.93
2018-06-09T04:23:45.887Z,36.50
2018-06-09T04:25:51.816Z,35.07
2018-06-09T04:27:55.644Z,40.40
2018-06-09T04:29:59.416Z,35.63
2018-06-09T04:32:03.303Z,43.97
2018-06-09T04:34:07.008Z,34.40
2018-06-09T04:36:10.937Z,41.17
2018-06-09T04:38:14.797Z,38.63
2018-06-09T04:40:18.812Z,40.90
2018-06-09T04:42:22.747Z,38.13
2018-06-09T04:44:26.671Z,41.87
2018-06-09T04:46:30.465Z,39.53
2018-06-09T04:48:34.310Z,36.37
2018-06-09T04:50:38.149Z,43.10
2018-06-09T04:52:42.149Z,37.03
2018-06-09T04:54:46.050Z,35.60
2018-06-09T04:56:49.885Z,35.27
2018-06-09T04:58:53.771Z,34.37
2018-06-09T05:00:57.679Z,31.40
2018-06-09T05:03:01.439Z,31.43
2018-06-09T05:05:05.341Z,35.47
2018-06-09T05:07:09.271Z,31.50
2018-06-09T05:09:13.135Z,35.43
2018-06-09T05:11:16.876Z,30.57
2018-06-09T05:13:20.933Z,36.47
2018-06-09T05:15:24.887Z,30.00
2018-06-09T05:17:28.727Z,28.20
2018-06-09T05:19:32.509Z,30.67
2018-06-09T05:21:37.018Z,26.87
2018-06-09T05:23:40.815Z,25.35
2018-06-09T05:25:44.685Z,35.73
2018-06-09T05:27:48.477Z,30.73
2018-06-09T05:29:52.363Z,26.63
2018-06-09T05:31:56.116Z,28.50
2018-06-09T05:33:59.986Z,29.30
2018-06-09T05:36:03.748Z,27.20
2018-06-09T05:38:07.638Z,30.13
2018-06-09T05:40:11.462Z,30.57
2018-06-09T05:42:15.733Z,23.60
2018-06-09T05:44:19.514Z,27.40
2018-06-09T05:46:23.518Z,26.33
2018-06-09T05:48:27.442Z,24.80
2018-06-09T05:50:31.335Z,28.07
2018-06-09T05:52:35.157Z,24.10
2018-06-09T05:54:39.284Z,24.73
2018-06-09T05:56:43.088Z,27.93
2018-06-09T05:58:46.947Z,24.40
2018-06-09T06:00:50.715Z,25.37
2018-06-09T06:02:54.573Z,29.33
2018-06-09T06:04:58.528Z,27.30
2018-06-09T06:07:02.380Z,17.97
2018-06-09T06:09:08.270Z,24.57
2018-06-09T06:11:12.583Z,21.87
2018-06-09T06:13:16.984Z,27.23
2018-06-09T06:15:20.895Z,28.30
2018-06-09T06:17:24.686Z,22.47
2018-06-09T06:19:28.559Z,26.00
2018-06-09T06:21:32.329Z,25.80
2018-06-09T06:23:36.283Z,23.13
2018-06-09T06:25:40.024Z,23.43
2018-06-09T06:27:43.920Z,20.83
2018-06-09T06:29:47.717Z,22.77
2018-06-09T06:31:51.685Z,25.67
2018-06-09T06:33:55.619Z,21.50
2018-06-09T06:35:59.473Z,24.30
2018-06-09T06:38:03.392Z,27.30
2018-06-09T06:40:07.301Z,21.43
2018-06-09T06:42:11.137Z,22.20
2018-06-09T06:44:15.155Z,24.80
2018-06-09T06:46:18.941Z,24.00
2018-06-09T06:48:22.821Z,22.67
2018-06-09T06:50:27.247Z,19.67
2018-06-09T06:52:31.131Z,25.83
2018-06-09T06:54:34.913Z,24.53
2018-06-09T06:56:38.761Z,21.17
2018-06-09T06:58:42.587Z,20.07
2018-06-09T07:00:46.433Z,19.53
2018-06-09T07:02:50.185Z,22.40
2018-06-09T07:04:54.028Z,23.93
2018-06-09T07:07:04.910Z,30.93
2018-06-09T07:09:08.576Z,20.27
2018-06-09T07:11:12.602Z,22.32
2018-06-09T07:13:17.343Z,25.73
2018-06-09T07:15:21.098Z,22.75
2018-06-09T07:17:24.980Z,18.87
2018-06-09T07:19:28.749Z,22.73
2018-06-09T07:21:32.708Z,18.50
2018-06-09T07:23:36.522Z,26.93
2018-06-09T07:25:40.438Z,16.03
2018-06-09T07:27:44.398Z,18.67
2018-06-09T07:29:48.263Z,23.20
2018-06-09T07:31:52.172Z,17.90
2018-06-09T07:33:56.223Z,16.80
2018-06-09T07:36:00.150Z,16.60
2018-06-09T07:38:04.172Z,17.80
2018-06-09T07:40:08.262Z,16.90
2018-06-09T07:42:12.235Z,14.33
2018-06-09T07:44:16.059Z,17.03
2018-06-09T07:46:19.981Z,15.40
2018-06-09T07:48:23.712Z,16.90
2018-06-09T07:50:27.704Z,16.93
2018-06-09T07:52:31.504Z,20.37
2018-06-09T07:54:35.439Z,20.80
2018-06-09T07:56:39.223Z,15.50
2018-06-09T07:58:44.697Z,19.73
2018-06-09T08:00:48.588Z,17.73
2018-06-09T08:02:52.356Z,18.50
2018-06-09T08:04:56.299Z,14.50
2018-06-09T08:07:00.140Z,16.67
2018-06-09T08:09:05.260Z,18.57
2018-06-09T08:11:09.097Z,13.00
2018-06-09T08:13:12.885Z,19.67
2018-06-09T08:15:16.791Z,15.23
2018-06-09T08:17:21.226Z,18.23
2018-06-09T08:19:25.197Z,13.87
2018-06-09T08:21:29.002Z,15.30
2018-06-09T08:23:32.825Z,15.00
2018-06-09T08:25:36.602Z,15.07
2018-06-09T08:27:40.695Z,13.03
2018-06-09T08:29:44.464Z,14.70
2018-06-09T08:31:48.342Z,14.57
2018-06-09T08:33:52.220Z,17.03
2018-06-09T08:35:56.077Z,16.23
2018-06-09T08:37:59.874Z,14.03
2018-06-09T08:40:03.829Z,16.70
2018-06-09T08:42:07.609Z,16.70
2018-06-09T08:44:11.553Z,13.93
2018-06-09T08:46:15.306Z,16.10
2018-06-09T08:48:19.190Z,14.70
2018-06-09T08:50:23.029Z,15.03
2018-06-09T08:52:26.899Z,17.20
2018-06-09T08:54:31.012Z,16.93
2018-06-09T08:56:34.960Z,20.73
2018-06-09T08:58:38.804Z,15.53
2018-06-09T09:00:42.728Z,18.63
2018-06-09T09:02:46.499Z,15.27
2018-06-09T09:04:50.374Z,14.30
2018-06-09T09:06:54.114Z,18.43
2018-06-09T09:08:58.040Z,14.60
2018-06-09T09:11:01.880Z,15.90
2018-06-09T09:13:05.739Z,17.40
2018-06-09T09:15:16.725Z,15.97
2018-06-09T09:17:20.825Z,21.50
2018-06-09T09:19:27.254Z,15.10
2018-06-09T09:21:43.625Z,15.17
2018-06-09T09:23:47.509Z,16.37
2018-06-09T09:25:51.333Z,15.23
2018-06-09T09:27:55.150Z,21.63
2018-06-09T09:29:58.913Z,20.00
2018-06-09T09:32:02.771Z,15.57
2018-06-09T09:34:06.678Z,15.63
2018-06-09T09:36:10.523Z,15.33
2018-06-09T09:38:14.304Z,20.07
2018-06-09T09:40:18.120Z,18.60
2018-06-09T09:42:21.864Z,16.53
2018-06-09T09:44:25.739Z,17.60
2018-06-09T09:46:29.523Z,14.00
2018-06-09T09:48:33.413Z,17.20
2018-06-09T09:50:37.283Z,16.17
2018-06-09T09:52:41.100Z,16.07
2018-06-09T09:54:44.848Z,17.73
2018-06-09T09:56:48.719Z,15.83
2018-06-09T09:58:52.457Z,14.33
2018-06-09T10:00:56.335Z,14.77
2018-06-09T10:03:00.101Z,15.20
2018-06-09T10:05:03.956Z,16.50
2018-06-09T10:07:07.808Z,14.67
2018-06-09T10:09:11.754Z,17.83
2018-06-09T10:11:15.549Z,19.07
2018-06-09T10:13:19.418Z,15.70
2018-06-09T10:15:23.159Z,16.73
2018-06-09T10:17:26.983Z,15.53
2018-06-09T10:19:30.824Z,18.20
2018-06-09T10:21:34.696Z,19.17
2018-06-09T10:23:38.530Z,17.43
2018-06-09T10:25:42.384Z,17.07
2018-06-09T10:27:46.153Z,17.67
2018-06-09T10:29:50.923Z,18.03
2018-06-09T10:31:54.788Z,17.82
2018-06-09T10:33:58.687Z,15.30
2018-06-09T10:36:02.777Z,18.00
2018-06-09T10:38:06.777Z,18.57
2018-06-09T10:40:10.566Z,16.43
2018-06-09T10:42:14.458Z,24.50
2018-06-09T10:44:18.262Z,17.77
2018-06-09T10:46:22.161Z,16.97
2018-06-09T10:48:29.431Z,18.10
2018-06-09T10:50:33.284Z,18.77
2018-06-09T10:52:37.070Z,16.50
2018-06-09T10:54:40.952Z,15.13
2018-06-09T10:56:44.743Z,23.37
2018-06-09T10:58:48.731Z,20.73
2018-06-09T11:00:52.525Z,17.37
2018-06-09T11:02:56.540Z,19.73
2018-06-09T11:05:00.520Z,19.37
2018-06-09T11:07:04.425Z,19.37
2018-06-09T11:09:08.208Z,15.37
2018-06-09T11:11:12.069Z,18.13
2018-06-09T11:13:15.862Z,16.67
2018-06-09T11:15:19.777Z,17.47
2018-06-09T11:17:23.636Z,13.40
2018-06-09T11:19:27.536Z,16.07
2018-06-09T11:21:31.305Z,15.53
2018-06-09T11:23:35.209Z,19.90
2018-06-09T11:25:39.333Z,21.00
2018-06-09T11:27:43.234Z,18.30
2018-06-09T11:29:47.038Z,18.90
2018-06-09T11:31:51.110Z,14.83
2018-06-09T11:33:54.998Z,16.37
2018-06-09T11:35:58.944Z,17.00
2018-06-09T11:38:02.719Z,17.90
2018-06-09T11:40:06.618Z,22.00
2018-06-09T11:42:11.879Z,19.67
2018-06-09T11:44:15.800Z,20.50
2018-06-09T11:46:19.900Z,19.17
2018-06-09T11:48:23.736Z,17.03
2018-06-09T11:50:27.537Z,23.33
2018-06-09T11:52:31.368Z,18.37
2018-06-09T11:54:35.175Z,20.47
2018-06-09T11:56:39.091Z,18.20
2018-06-09T11:58:42.874Z,20.37
2018-06-09T12:00:46.770Z,20.80
2018-06-09T12:02:50.588Z,20.87
2018-06-09T12:04:54.449Z,19.73
2018-06-09T12:06:58.208Z,20.10
2018-06-09T12:09:02.064Z,17.60
2018-06-09T12:11:05.868Z,18.40
2018-06-09T12:13:09.867Z,18.03
2018-06-09T12:15:13.641Z,17.53
2018-06-09T12:17:17.807Z,18.13
2018-06-09T12:19:22.993Z,16.37
2018-06-09T12:21:26.988Z,23.47
2018-06-09T12:23:30.876Z,21.43
2018-06-09T12:25:34.830Z,20.00
2018-06-09T12:27:38.775Z,19.87
2018-06-09T12:29:42.788Z,27.20
2018-06-09T12:31:46.635Z,22.13
2018-06-09T12:33:50.507Z,18.93
2018-06-09T12:35:54.339Z,17.60
2018-06-09T12:37:58.227Z,22.53
2018-06-09T12:40:01.609Z,16.07
2018-06-09T12:42:05.528Z,18.27
2018-06-09T12:44:09.322Z,16.63
2018-06-09T12:46:13.204Z,16.33
2018-06-09T12:48:17.018Z,16.37
2018-06-09T12:50:20.946Z,18.40
2018-06-09T12:52:24.806Z,23.67
2018-06-09T12:54:29.795Z,18.07
2018-06-09T12:56:33.822Z,19.27
2018-06-09T12:58:37.620Z,16.00
2018-06-09T13:00:41.528Z,20.10
2018-06-09T13:02:45.412Z,19.10
2018-06-09T13:04:49.278Z,22.60
2018-06-09T13:06:53.177Z,17.90
2018-06-09T13:08:57.085Z,16.57
2018-06-09T13:11:00.868Z,18.40
2018-06-09T13:13:04.845Z,17.20
2018-06-09T13:15:08.703Z,20.97
2018-06-09T13:17:12.599Z,17.10
2018-06-09T13:19:16.509Z,20.30
2018-06-09T13:21:20.480Z,18.47
2018-06-09T13:23:24.423Z,13.80
2018-06-09T13:25:28.316Z,18.43
2018-06-09T13:27:32.245Z,20.60
2018-06-09T13:29:36.115Z,19.20
2018-06-09T13:31:39.914Z,15.87
2018-06-09T13:33:44.513Z,16.13
2018-06-09T13:35:48.332Z,21.00
2018-06-09T13:37:52.598Z,20.63
2018-06-09T13:39:56.423Z,17.60
2018-06-09T13:42:01.232Z,15.67
2018-06-09T13:44:05.073Z,18.02
2018-06-09T13:46:09.056Z,18.33
2018-06-09T13:48:12.975Z,17.43
2018-06-09T13:50:16.937Z,19.30
2018-06-09T13:52:20.771Z,17.50
2018-06-09T13:54:24.729Z,17.63
2018-06-09T13:56:28.565Z,18.33
2018-06-09T13:58:32.485Z,18.50
2018-06-09T14:00:36.406Z,15.67
2018-06-09T14:02:40.984Z,17.90
2018-06-09T14:04:44.777Z,17.90
2018-06-09T14:06:48.720Z,18.53
2018-06-09T14:08:52.132Z,20.40
2018-06-09T14:10:56.258Z,18.43
2018-06-09T14:13:18.989Z,19.43
2018-06-09T14:15:23.101Z,16.27
2018-06-09T14:17:26.884Z,18.20
2018-06-09T14:19:30.910Z,21.00
2018-06-09T14:21:34.691Z,17.23
2018-06-09T14:23:38.700Z,19.50
2018-06-09T14:25:42.568Z,18.57
2018-06-09T14:27:46.470Z,19.33
2018-06-09T14:29:50.396Z,20.73
2018-06-09T14:31:54.274Z,16.97
2018-06-09T14:33:58.134Z,20.63
2018-06-09T14:36:02.129Z,18.10
2018-06-09T14:38:06.051Z,17.87
2018-06-09T14:40:10.138Z,19.63
2018-06-09T14:42:13.944Z,16.47
2018-06-09T14:44:19.641Z,17.17
2018-06-09T14:46:23.526Z,19.73
2018-06-09T14:48:27.309Z,15.47
2018-06-09T14:50:31.388Z,19.00
2018-06-09T14:52:35.245Z,21.27
2018-06-09T14:54:39.774Z,19.07
2018-06-09T14:56:43.954Z,17.75
2018-06-09T14:58:47.825Z,19.43
2018-06-09T15:00:51.624Z,20.53
2018-06-09T15:02:55.493Z,17.00
2018-06-09T15:04:59.291Z,15.87
2018-06-09T15:07:03.350Z,13.63
2018-06-09T15:09:09.056Z,16.40
2018-06-09T15:11:13.248Z,15.90
2018-06-09T15:13:17.500Z,17.37
2018-06-09T15:15:22.105Z,18.37
2018-06-09T15:17:26.025Z,15.58
2018-06-09T15:19:29.945Z,16.63
2018-06-09T15:21:33.910Z,21.30
2018-06-09T15:23:37.901Z,14.03
2018-06-09T15:25:41.696Z,13.40
2018-06-09T15:27:45.767Z,15.40
2018-06-09T15:29:49.678Z,13.13
2018-06-09T15:31:53.662Z,13.37
2018-06-09T15:33:57.110Z,16.80
2018-06-09T15:36:00.993Z,14.80
2018-06-09T15:38:04.778Z,14.90
2018-06-09T15:40:08.841Z,15.80
2018-06-09T15:42:12.713Z,14.27
2018-06-09T15:44:16.734Z,13.97
2018-06-09T15:46:20.624Z,17.00
2018-06-09T15:48:24.508Z,16.83
2018-06-09T15:50:28.510Z,16.90
2018-06-09T15:52:32.704Z,14.10
2018-06-09T15:54:36.809Z,15.97
2018-06-09T15:56:40.713Z,16.13
2018-06-09T15:58:44.512Z,18.60
2018-06-09T16:00:54.516Z,17.30
2018-06-09T16:02:58.485Z,15.40
2018-06-09T16:05:02.796Z,17.80
2018-06-09T16:07:07.288Z,22.30
2018-06-09T16:09:11.409Z,21.20
2018-06-09T16:11:15.413Z,15.30
2018-06-09T16:13:19.379Z,22.63
2018-06-09T16:15:23.432Z,15.73
2018-06-09T16:17:27.810Z,19.40
2018-06-09T16:19:31.421Z,19.50
2018-06-09T16:21:35.712Z,14.87
2018-06-09T16:23:40.112Z,17.30
2018-06-09T16:25:44.273Z,20.17
2018-06-09T16:27:48.336Z,15.70
2018-06-09T16:29:52.308Z,14.77
2018-06-09T16:31:56.330Z,21.63
2018-06-09T16:34:00.813Z,26.33
2018-06-09T16:36:04.768Z,16.00
2018-06-09T16:38:08.756Z,16.27
2018-06-09T16:40:12.648Z,21.47
2018-06-09T16:42:16.762Z,18.03
2018-06-09T16:44:20.674Z,22.47
2018-06-09T16:46:24.651Z,24.30
2018-06-09T16:48:28.537Z,18.00
2018-06-09T16:50:32.376Z,16.00
2018-06-09T16:52:36.224Z,15.70
2018-06-09T16:54:40.024Z,17.83
2018-06-09T16:56:43.991Z,16.37
2018-06-09T16:58:48.136Z,17.73
2018-06-09T17:00:52.027Z,19.23
2018-06-09T17:02:55.850Z,16.03
2018-06-09T17:04:59.755Z,16.07
2018-06-09T17:07:03.827Z,14.67
2018-06-09T17:09:08.687Z,15.53
2018-06-09T17:11:12.481Z,15.43
2018-06-09T17:13:16.391Z,16.27
2018-06-09T17:15:20.203Z,15.70
2018-06-09T17:17:24.254Z,15.43
2018-06-09T17:19:28.028Z,17.70
2018-06-09T17:21:31.891Z,19.00
2018-06-09T17:23:35.742Z,14.07
2018-06-09T17:25:39.675Z,15.50
2018-06-09T17:27:43.492Z,15.70
2018-06-09T17:29:47.527Z,17.40
2018-06-09T17:31:51.317Z,16.80
2018-06-09T17:33:55.220Z,15.70
2018-06-09T17:35:59.002Z,19.63
2018-06-09T17:38:03.000Z,16.13
2018-06-09T17:40:06.827Z,18.07
2018-06-09T17:42:11.014Z,15.43
2018-06-09T17:44:14.944Z,16.60
2018-06-09T17:46:18.856Z,21.07
2018-06-09T17:48:23.181Z,15.03
2018-06-09T17:50:27.119Z,18.67
2018-06-09T17:52:30.536Z,16.70
2018-06-09T17:54:34.709Z,14.07
2018-06-09T17:56:39.129Z,18.27
2018-06-09T17:58:43.377Z,25.00
2018-06-09T18:00:47.605Z,17.93
2018-06-09T18:02:51.674Z,16.63
2018-06-09T18:04:55.688Z,17.30
2018-06-09T18:07:00.104Z,17.67
2018-06-09T18:09:05.453Z,18.37
2018-06-09T18:11:09.652Z,14.73
2018-06-09T18:13:13.719Z,17.30
2018-06-09T18:15:17.728Z,17.00
2018-06-09T18:17:21.658Z,18.90
2018-06-09T18:19:25.656Z,21.27
2018-06-09T18:21:29.684Z,19.40
2018-06-09T18:23:33.842Z,16.73
2018-06-09T18:25:37.688Z,14.70
2018-06-09T18:27:41.607Z,16.90
2018-06-09T18:29:45.078Z,18.03
2018-06-09T18:31:49.024Z,16.20
2018-06-09T18:33:52.952Z,16.73
2018-06-09T18:35:57.090Z,18.33
2018-06-09T18:38:00.991Z,15.60
2018-06-09T18:40:05.095Z,17.63
2018-06-09T18:42:09.014Z,21.50
2018-06-09T18:44:13.114Z,16.63
2018-06-09T18:46:16.971Z,15.50
2018-06-09T18:48:20.953Z,18.10
2018-06-09T18:50:24.903Z,13.43
2018-06-09T18:52:29.038Z,19.63
2018-06-09T18:54:32.874Z,18.53
2018-06-09T18:56:36.910Z,15.13
2018-06-09T18:58:40.876Z,14.90
2018-06-09T19:00:44.789Z,16.33
2018-06-09T19:02:48.586Z,17.40
2018-06-09T19:04:52.551Z,20.50
2018-06-09T19:06:56.433Z,15.60
2018-06-09T19:09:00.368Z,16.97
2018-06-09T19:11:04.332Z,21.33
2018-06-09T19:13:08.594Z,15.30
2018-06-09T19:15:12.429Z,14.97
2018-06-09T19:17:16.392Z,16.90
2018-06-09T19:19:20.270Z,16.30
2018-06-09T19:21:24.345Z,15.77
2018-06-09T19:23:28.115Z,18.23
2018-06-09T19:25:31.983Z,14.40
2018-06-09T19:27:36.013Z,19.53
2018-06-09T19:29:39.970Z,18.70
2018-06-09T19:31:43.911Z,16.20
2018-06-09T19:33:47.846Z,20.70
2018-06-09T19:35:51.681Z,16.30
2018-06-09T19:37:55.601Z,16.77
2018-06-09T19:39:59.033Z,19.53
2018-06-09T19:42:02.945Z,17.50
2018-06-09T19:44:06.833Z,15.00
2018-06-09T19:46:10.782Z,18.60
2018-06-09T19:48:14.613Z,17.27
2018-06-09T19:50:18.649Z,17.67
2018-06-09T19:52:22.537Z,14.70
2018-06-09T19:54:26.507Z,21.07
2018-06-09T19:56:30.400Z,15.53
2018-06-09T19:58:34.025Z,16.07
2018-06-09T20:00:40.918Z,17.32
2018-06-09T20:02:44.943Z,22.70
2018-06-09T20:04:48.801Z,17.60
2018-06-09T20:06:52.806Z,17.80
2018-06-09T20:08:56.892Z,21.10
2018-06-09T20:11:01.076Z,17.50
2018-06-09T20:13:05.143Z,20.70
2018-06-09T20:15:09.319Z,17.10
2018-06-09T20:17:13.180Z,18.60
2018-06-09T20:19:17.642Z,14.77
2018-06-09T20:21:21.783Z,17.75
2018-06-09T20:23:25.828Z,14.23
2018-06-09T20:25:29.922Z,16.03
2018-06-09T20:27:33.961Z,19.20
2018-06-09T20:29:38.214Z,22.73
2018-06-09T20:31:42.770Z,17.47
2018-06-09T20:33:46.671Z,15.45
2018-06-09T20:35:51.889Z,14.20
2018-06-09T20:37:55.784Z,14.10
2018-06-09T20:39:59.709Z,17.67
2018-06-09T20:42:03.676Z,18.53
2018-06-09T20:44:08.670Z,16.73
2018-06-09T20:46:12.775Z,15.10
2018-06-09T20:48:16.768Z,16.10
2018-06-09T20:50:20.963Z,13.47
2018-06-09T20:52:24.855Z,18.10
2018-06-09T20:54:28.835Z,15.23
2018-06-09T20:56:32.672Z,15.87
2018-06-09T20:58:40.052Z,15.73
2018-06-09T21:00:43.952Z,14.37
2018-06-09T21:02:48.137Z,16.90
2018-06-09T21:04:52.099Z,21.50
2018-06-09T21:06:55.991Z,16.37
2018-06-09T21:09:00.106Z,16.90
2018-06-09T21:11:03.999Z,15.30
2018-06-09T21:13:08.053Z,19.83
2018-06-09T21:15:11.890Z,16.63
2018-06-09T21:17:15.829Z,20.10
2018-06-09T21:19:21.344Z,13.30
2018-06-09T21:21:28.294Z,14.30
2018-06-09T21:23:32.254Z,14.77
2018-06-09T21:25:36.157Z,12.20
2018-06-09T21:28:47.210Z,13.50
2018-06-09T21:30:56.523Z,13.83
2018-06-09T21:33:05.523Z,15.03
2018-06-09T21:35:20.010Z,15.80
2018-06-09T21:38:28.978Z,17.67
2018-06-09T21:40:38.377Z,17.83
2018-06-09T21:42:49.028Z,19.33
2018-06-09T21:44:58.138Z,14.70
2018-06-09T21:47:02.062Z,15.47
2018-06-09T21:49:06.099Z,19.00
2018-06-09T21:51:10.096Z,17.93
2018-06-09T21:53:14.263Z,16.67
2018-06-09T21:55:18.248Z,18.00
2018-06-09T21:57:22.101Z,16.90
2018-06-09T21:59:27.110Z,14.90
2018-06-09T22:01:31.140Z,18.70
2018-06-09T22:03:34.983Z,13.90
2018-06-09T22:05:38.945Z,16.50
2018-06-09T22:07:42.740Z,15.03
2018-06-09T22:09:46.906Z,13.70
2018-06-09T22:11:50.738Z,12.23
2018-06-09T22:13:54.832Z,15.33
2018-06-09T22:15:58.648Z,14.70
2018-06-09T22:18:02.586Z,15.47
2018-06-09T22:20:06.531Z,15.10
2018-06-09T22:22:10.469Z,16.17
2018-06-09T22:24:14.441Z,14.00
2018-06-09T22:26:18.320Z,14.63
2018-06-09T22:28:22.100Z,16.97
2018-06-09T22:30:26.054Z,16.63
2018-06-09T22:32:29.842Z,14.00
2018-06-09T22:34:34.929Z,16.57
2018-06-09T22:36:38.837Z,17.57
2018-06-09T22:38:42.602Z,17.73
2018-06-09T22:40:46.478Z,14.13
2018-06-09T22:42:50.286Z,15.97
2018-06-09T22:44:54.239Z,15.50
2018-06-09T22:46:58.234Z,16.20
2018-06-09T22:49:02.126Z,15.97
2018-06-09T22:51:05.909Z,17.43
2018-06-09T22:53:09.803Z,17.50
2018-06-09T22:55:13.584Z,16.13
2018-06-09T22:57:17.501Z,14.90
2018-06-09T22:59:21.289Z,14.10
2018-06-09T23:01:25.205Z,15.53
2018-06-09T23:03:28.965Z,17.97
2018-06-09T23:05:32.818Z,12.63
2018-06-09T23:07:37.222Z,13.70
2018-06-09T23:09:41.157Z,14.80
2018-06-09T23:11:45.009Z,16.53
2018-06-09T23:13:48.896Z,18.20
2018-06-09T23:15:52.693Z,15.90
2018-06-09T23:17:56.598Z,14.90
2018-06-09T23:20:00.430Z,18.40
2018-06-09T23:22:04.283Z,15.53
2018-06-09T23:24:08.209Z,16.47
2018-06-09T23:26:12.107Z,14.87
2018-06-09T23:28:15.900Z,20.03
2018-06-09T23:30:19.988Z,14.30
2018-06-09T23:32:23.766Z,14.67
2018-06-09T23:34:27.634Z,17.20
2018-06-09T23:36:31.409Z,16.17
2018-06-09T23:38:36.366Z,17.43
2018-06-09T23:40:40.290Z,16.77
2018-06-09T23:42:43.778Z,15.13
2018-06-09T23:44:47.822Z,18.07
2018-06-09T23:46:51.709Z,16.63
2018-06-09T23:48:55.482Z,16.40
2018-06-09T23:50:59.361Z,16.00
2018-06-09T23:53:03.153Z,14.73
2018-06-09T23:55:07.036Z,18.33
2018-06-09T23:57:10.826Z,17.13
2018-06-09T23:59:14.698Z,17.97
